Time;durP1;ratioP1;P1;durP2;ratioP2;P2;SDS_P1;SDS_P2;PMS_P1;PMS_P2;Temp;Humidity;BMP_temperature;BMP_pressure;BME280_temperature;BME280_humidity;BME280_pressure;Samples;Min_cycle;Max_cycle;Signal;HPM_P1;HPM_P2
2022/01/04 00:02:05;;;;;;;0.30;0.20;;;;;;;10.83;100.00;99048.94;5022085;28;20444;-53
2022/01/04 00:04:32;;;;;;;0.30;0.20;;;;;;;10.76;100.00;99045.69;5021917;28;20458;-53
2022/01/04 00:06:59;;;;;;;0.30;0.20;;;;;;;10.75;100.00;99037.81;5022191;28;20448;-53
2022/01/04 00:09:25;;;;;;;0.30;0.20;;;;;;;10.78;100.00;99030.53;5024121;28;20946;-53
2022/01/04 00:14:22;;;;;;;0.30;0.20;;;;;;;10.81;100.00;99024.19;5024816;28;20444;-53
2022/01/04 00:16:50;;;;;;;0.30;0.20;;;;;;;10.76;100.00;99010.28;5027935;28;20995;-53
2022/01/04 00:19:17;;;;;;;0.30;0.20;;;;;;;10.74;100.00;99009.50;5022784;28;20480;-53
2022/01/04 00:21:44;;;;;;;0.30;0.20;;;;;;;10.75;100.00;99001.44;5024000;28;20887;-53
2022/01/04 00:24:10;;;;;;;0.30;0.20;;;;;;;10.79;100.00;98989.72;5029825;28;20537;-53
2022/01/04 00:26:37;;;;;;;0.30;0.20;;;;;;;10.83;100.00;98987.78;5027324;28;20825;-53
2022/01/04 00:29:03;;;;;;;0.30;0.20;;;;;;;10.73;100.00;98975.91;5028720;28;20494;-53
2022/01/04 00:31:30;;;;;;;0.30;0.20;;;;;;;10.74;100.00;98967.84;5022850;28;20982;-53
2022/01/04 00:33:57;;;;;;;0.30;0.20;;;;;;;10.70;100.00;98966.28;5023843;28;20472;-53
2022/01/04 00:36:25;;;;;;;0.30;0.20;;;;;;;10.71;100.00;98968.00;5021895;28;20444;-53
2022/01/04 00:38:51;;;;;;;0.30;0.20;;;;;;;10.70;100.00;98970.75;5022061;28;20444;-53
2022/01/04 00:41:18;;;;;;;0.30;0.20;;;;;;;10.73;100.00;98963.47;5022440;28;20525;-53
2022/01/04 00:43:48;;;;;;;0.30;0.20;;;;;;;10.68;100.00;98955.72;5022845;28;20432;-53
2022/01/04 00:46:17;;;;;;;0.30;0.20;;;;;;;10.77;100.00;98951.72;5024289;28;20444;-53
2022/01/04 00:51:30;;;;;;;0.30;0.20;;;;;;;10.75;100.00;98931.50;5021102;28;20464;-53
2022/01/04 00:53:57;;;;;;;0.30;0.20;;;;;;;10.68;100.00;98914.97;5024066;28;20444;-53
2022/01/04 00:56:23;;;;;;;0.30;0.20;;;;;;;10.65;100.00;98908.03;5021967;28;20435;-53
2022/01/04 00:58:50;;;;;;;0.30;0.20;;;;;;;10.57;100.00;98898.75;5023341;28;20458;-53
2022/01/04 01:01:17;;;;;;;0.30;0.20;;;;;;;10.66;100.00;98900.91;5020453;28;20515;-53
2022/01/04 01:03:43;;;;;;;0.30;0.20;;;;;;;10.63;100.00;98890.44;5022317;28;20450;-53
2022/01/04 01:06:11;;;;;;;0.30;0.20;;;;;;;10.71;100.00;98880.31;5021783;28;20557;-53
2022/01/04 01:08:37;;;;;;;0.30;0.20;;;;;;;10.75;100.00;98878.34;5023461;28;20511;-53
2022/01/04 01:11:06;;;;;;;0.30;0.20;;;;;;;10.74;100.00;98871.31;5026838;28;20545;-53
2022/01/04 01:13:33;;;;;;;0.30;0.20;;;;;;;10.78;100.00;98857.75;5026432;28;20471;-53
2022/01/04 01:16:00;;;;;;;0.30;0.20;;;;;;;10.84;100.00;98854.81;5021615;28;20445;-53
2022/01/04 01:18:27;;;;;;;0.30;0.20;;;;;;;10.81;100.00;98862.06;5025368;28;20449;-53
2022/01/04 01:20:54;;;;;;;0.30;0.20;;;;;;;10.90;100.00;98858.91;5022807;28;20555;-53
2022/01/04 01:23:22;;;;;;;0.30;0.20;;;;;;;10.88;100.00;98856.34;5023337;28;20510;-53
2022/01/04 01:25:49;;;;;;;0.30;0.20;;;;;;;10.84;100.00;98851.28;5028356;28;21001;-53
2022/01/04 01:28:17;;;;;;;0.30;0.20;;;;;;;10.86;100.00;98847.59;5022158;28;20680;-53
2022/01/04 01:30:44;;;;;;;0.30;0.20;;;;;;;10.86;100.00;98839.63;5020108;28;20472;-53
2022/01/04 01:33:12;;;;;;;0.30;0.20;;;;;;;10.85;100.00;98831.75;5025813;28;21020;-53
2022/01/04 01:35:39;;;;;;;0.30;0.20;;;;;;;10.73;100.00;98835.91;5031982;28;20817;-53
2022/01/04 01:38:08;;;;;;;0.30;0.20;;;;;;;10.65;100.00;98819.50;5031953;28;20498;-53
2022/01/04 01:40:36;;;;;;;0.30;0.20;;;;;;;10.73;100.00;98811.13;5032131;28;20498;-53
2022/01/04 01:43:04;;;;;;;0.30;0.20;;;;;;;10.70;100.00;98804.19;5031800;28;20467;-53
2022/01/04 01:45:31;;;;;;;0.30;0.20;;;;;;;10.65;100.00;98803.53;5031788;28;20560;-53
2022/01/04 01:47:58;;;;;;;0.30;0.20;;;;;;;10.84;100.00;98809.63;5031776;28;20454;-53
2022/01/04 01:50:24;;;;;;;0.30;0.20;;;;;;;10.91;100.00;98799.50;5032081;28;20472;-53
2022/01/04 01:52:52;;;;;;;0.30;0.20;;;;;;;10.69;100.00;98789.19;5031919;28;20451;-53
2022/01/04 01:55:21;;;;;;;0.30;0.20;;;;;;;10.79;100.00;98784.19;5031824;28;20871;-53
2022/01/04 01:57:49;;;;;;;0.30;0.20;;;;;;;10.61;100.00;98775.44;5018498;28;20945;-53
2022/01/04 02:00:19;;;;;;;0.30;0.20;;;;;;;10.55;100.00;98768.66;5031651;28;20522;-53
2022/01/04 02:02:46;;;;;;;0.30;0.20;;;;;;;10.72;100.00;98769.53;5031999;28;20868;-53
2022/01/04 02:05:13;;;;;;;0.30;0.20;;;;;;;10.85;100.00;98757.31;5034853;28;20487;-53
2022/01/04 02:07:41;;;;;;;0.30;0.20;;;;;;;10.72;100.00;98754.47;5035405;28;20516;-53
2022/01/04 02:10:09;;;;;;;0.30;0.20;;;;;;;10.89;100.00;98746.41;5035357;28;20467;-53
2022/01/04 02:12:44;;;;;;;0.30;0.20;;;;;;;10.99;100.00;98736.16;5030190;28;20449;-53
2022/01/04 02:15:14;;;;;;;0.30;0.20;;;;;;;11.01;100.00;98733.41;5027913;28;20446;-53
2022/01/04 02:17:41;;;;;;;0.30;0.20;;;;;;;10.98;100.00;98734.44;5029203;28;21032;-53
2022/01/04 02:20:09;;;;;;;0.30;0.20;;;;;;;10.97;100.00;98727.41;5028142;28;21010;-53
2022/01/04 02:22:35;;;;;;;0.30;0.20;;;;;;;10.92;100.00;98724.97;5035156;28;20454;-53
2022/01/04 02:25:03;;;;;;;0.30;0.20;;;;;;;10.98;100.00;98722.00;5041983;28;20527;-53
2022/01/04 02:27:33;;;;;;;0.30;0.20;;;;;;;10.93;100.00;98715.19;5021720;28;20460;-53
2022/01/04 02:30:00;;;;;;;0.30;0.20;;;;;;;10.95;100.00;98714.16;5035097;28;20890;-53
2022/01/04 02:32:27;;;;;;;0.30;0.20;;;;;;;11.02;100.00;98711.19;5027821;28;20999;-53
2022/01/04 02:34:54;;;;;;;0.30;0.20;;;;;;;11.06;100.00;98708.25;5029213;28;20800;-53
2022/01/04 02:37:23;;;;;;;0.30;0.20;;;;;;;11.16;100.00;98704.16;5034956;28;20455;-53
2022/01/04 02:39:50;;;;;;;0.30;0.20;;;;;;;11.31;100.00;98701.56;5034694;28;20984;-53
2022/01/04 02:42:17;;;;;;;0.30;0.20;;;;;;;11.30;100.00;98687.41;5034657;28;20473;-53
2022/01/04 02:44:44;;;;;;;0.30;0.20;;;;;;;11.29;100.00;98688.34;5034827;28;20491;-53
2022/01/04 02:47:12;;;;;;;0.30;0.20;;;;;;;11.40;100.00;98688.59;5034854;28;20509;-53
2022/01/04 02:49:39;;;;;;;0.30;0.20;;;;;;;11.38;100.00;98679.00;5034515;28;20452;-53
2022/01/04 02:52:06;;;;;;;0.30;0.20;;;;;;;11.44;100.00;98683.94;5034668;28;20426;-53
2022/01/04 02:54:33;;;;;;;0.30;0.20;;;;;;;11.50;100.00;98675.59;5032347;28;20458;-52
2022/01/04 02:57:00;;;;;;;0.30;0.20;;;;;;;11.53;100.00;98670.97;5023184;28;20501;-53
2022/01/04 02:59:27;;;;;;;0.30;0.20;;;;;;;11.48;100.00;98665.03;5034442;28;20510;-53
2022/01/04 03:01:54;;;;;;;0.30;0.20;;;;;;;11.60;100.00;98659.97;5024392;28;20464;-53
2022/01/04 03:04:21;;;;;;;0.30;0.20;;;;;;;11.41;100.00;98658.38;5022279;28;20415;-53
2022/01/04 03:06:47;;;;;;;0.30;0.20;;;;;;;11.43;100.00;98650.31;5023212;28;21036;-53
2022/01/04 03:09:15;;;;;;;0.30;0.20;;;;;;;11.48;100.00;98649.06;5023760;28;20502;-53
2022/01/04 03:11:42;;;;;;;0.30;0.20;;;;;;;11.47;100.00;98647.38;5030887;28;20811;-53
2022/01/04 03:14:08;;;;;;;0.30;0.20;;;;;;;11.44;100.00;98644.91;5024878;28;20436;-53
2022/01/04 03:16:35;;;;;;;0.30;0.20;;;;;;;11.44;100.00;98642.22;5025694;28;20464;-53
2022/01/04 03:19:03;;;;;;;0.30;0.20;;;;;;;11.35;100.00;98633.94;5024866;28;20523;-53
2022/01/04 03:21:30;;;;;;;0.30;0.20;;;;;;;11.46;100.00;98632.34;5024312;28;20486;-53
2022/01/04 03:23:57;;;;;;;0.30;0.20;;;;;;;11.45;100.00;98624.47;5024955;28;20448;-53
2022/01/04 03:26:25;;;;;;;0.30;0.20;;;;;;;11.74;100.00;98625.38;5028129;28;20465;-53
2022/01/04 03:28:52;;;;;;;0.30;0.20;;;;;;;11.67;100.00;98619.59;5023509;28;20424;-53
2022/01/04 03:31:18;;;;;;;0.30;0.20;;;;;;;11.75;100.00;98605.81;5023889;28;20944;-53
2022/01/04 03:33:45;;;;;;;0.30;0.20;;;;;;;11.55;100.00;98599.88;5024699;28;20522;-53
2022/01/04 03:36:12;;;;;;;0.30;0.20;;;;;;;11.64;100.00;98597.59;5024324;28;20432;-53
2022/01/04 03:38:39;;;;;;;0.30;0.20;;;;;;;11.61;100.00;98595.13;5022024;28;20473;-52
2022/01/04 03:41:07;;;;;;;0.30;0.20;;;;;;;11.81;100.00;98586.84;5023805;28;20439;-52
2022/01/04 03:43:37;;;;;;;0.30;0.20;;;;;;;11.58;100.00;98583.72;5022274;28;20971;-53
2022/01/04 03:46:07;;;;;;;0.30;0.20;;;;;;;11.68;100.00;98576.06;5024200;28;20961;-52
2022/01/04 03:48:35;;;;;;;0.30;0.20;;;;;;;11.72;100.00;98574.91;5024337;28;20519;-52
2022/01/04 03:51:03;;;;;;;0.30;0.20;;;;;;;11.65;100.00;98578.03;5022960;28;20906;-53
2022/01/04 03:53:30;;;;;;;0.30;0.20;;;;;;;11.52;100.00;98568.16;5023454;28;20484;-53
2022/01/04 03:55:56;;;;;;;0.30;0.20;;;;;;;11.50;100.00;98556.72;5025189;28;20994;-53
2022/01/04 03:58:23;;;;;;;0.30;0.20;;;;;;;11.60;100.00;98558.81;5024604;28;20415;-53
2022/01/04 04:00:50;;;;;;;0.30;0.20;;;;;;;11.53;100.00;98547.72;5022103;28;20465;-52
2022/01/04 04:03:17;;;;;;;0.30;0.20;;;;;;;11.47;100.00;98551.59;5022158;28;20440;-52
2022/01/04 04:05:44;;;;;;;0.30;0.20;;;;;;;11.52;100.00;98538.03;5023040;28;20986;-53
2022/01/04 04:08:11;;;;;;;0.30;0.20;;;;;;;11.36;100.00;98532.75;5023864;28;20489;-53
2022/01/04 04:10:38;;;;;;;0.30;0.20;;;;;;;11.44;100.00;98526.97;5026162;28;20762;-53
2022/01/04 04:13:04;;;;;;;0.30;0.20;;;;;;;11.46;100.00;98525.94;5029199;28;20515;-53
2022/01/04 04:15:31;;;;;;;0.30;0.20;;;;;;;11.32;100.00;98527.72;5023416;28;20487;-52
2022/01/04 04:17:58;;;;;;;0.30;0.20;;;;;;;11.61;100.00;98523.28;5026622;28;20451;-53
2022/01/04 04:20:25;;;;;;;0.30;0.20;;;;;;;11.52;100.00;98517.59;5023818;28;20455;-53
2022/01/04 04:22:51;;;;;;;0.30;0.20;;;;;;;11.50;100.00;98505.31;5022026;28;20444;-53
2022/01/04 04:25:18;;;;;;;0.30;0.20;;;;;;;11.41;100.00;98506.75;5028421;28;20479;-53
2022/01/04 04:27:45;;;;;;;0.30;0.20;;;;;;;11.53;100.00;98505.16;5022000;28;20444;-53
2022/01/04 04:30:12;;;;;;;0.30;0.20;;;;;;;11.39;100.00;98491.81;5025741;28;20848;-52
2022/01/04 04:32:38;;;;;;;0.30;0.20;;;;;;;11.45;100.00;98494.09;5022042;28;20469;-53
2022/01/04 04:35:05;;;;;;;0.30;0.20;;;;;;;11.41;100.00;98489.94;5021697;28;20410;-53
2022/01/04 04:37:32;;;;;;;0.30;0.20;;;;;;;11.50;100.00;98484.03;5025422;28;20475;-53
2022/01/04 04:39:58;;;;;;;0.30;0.20;;;;;;;11.48;100.00;98478.78;5023002;28;20459;-53
2022/01/04 04:42:25;;;;;;;0.40;0.20;;;;;;;11.56;100.00;98481.00;5023223;28;20452;-53
2022/01/04 04:44:56;;;;;;;0.30;0.20;;;;;;;11.56;100.00;98468.53;5022043;28;20799;-53
2022/01/04 04:47:23;;;;;;;0.47;0.47;;;;;;;11.54;100.00;98456.28;5022280;28;20503;-52
2022/01/04 04:49:49;;;;;;;0.30;0.20;;;;;;;11.61;100.00;98457.59;5021384;28;20487;-53
2022/01/04 04:52:16;;;;;;;0.30;0.20;;;;;;;11.49;100.00;98456.56;5022538;28;20499;-53
2022/01/04 04:54:43;;;;;;;0.30;0.20;;;;;;;11.49;100.00;98453.91;5024956;28;20451;-52
2022/01/04 04:57:09;;;;;;;0.30;0.20;;;;;;;11.45;100.00;98459.50;5023190;28;20436;-53
2022/01/04 04:59:36;;;;;;;0.30;0.20;;;;;;;11.42;100.00;98447.25;5021413;28;20499;-52
2022/01/04 05:02:04;;;;;;;0.30;0.20;;;;;;;11.39;100.00;98444.78;5022476;28;20440;-52
2022/01/04 05:04:31;;;;;;;0.30;0.20;;;;;;;11.52;100.00;98444.91;5022363;28;20441;-53
2022/01/04 05:06:58;;;;;;;0.30;0.20;;;;;;;11.59;100.00;98440.88;5023491;28;20489;-53
2022/01/04 05:09:24;;;;;;;0.30;0.20;;;;;;;11.57;100.00;98440.97;5019180;28;20560;-53
2022/01/04 05:11:51;;;;;;;0.30;0.20;;;;;;;11.54;100.00;98438.53;5029841;28;20486;-53
2022/01/04 05:14:18;;;;;;;0.30;0.20;;;;;;;11.40;100.00;98422.56;5023013;28;20453;-53
2022/01/04 05:16:44;;;;;;;0.67;0.67;;;;;;;11.49;100.00;98423.78;5025835;28;20857;-53
2022/01/04 05:19:11;;;;;;;0.30;0.20;;;;;;;11.45;100.00;98422.25;5021222;28;20501;-53
2022/01/04 05:21:38;;;;;;;0.30;0.20;;;;;;;11.44;100.00;98424.06;5020847;28;20471;-53
2022/01/04 05:24:05;;;;;;;0.30;0.20;;;;;;;11.51;100.00;98419.22;5023430;28;20447;-53
2022/01/04 05:26:34;;;;;;;0.30;0.20;;;;;;;11.38;100.00;98410.31;5024583;28;20447;-53
2022/01/04 05:29:02;;;;;;;0.30;0.20;;;;;;;11.41;100.00;98415.44;5026105;28;21002;-53
2022/01/04 05:31:29;;;;;;;0.30;0.20;;;;;;;11.40;100.00;98403.09;5020050;28;21040;-53
2022/01/04 05:33:56;;;;;;;0.30;0.20;;;;;;;11.44;100.00;98401.94;5025910;28;20472;-52
2022/01/04 05:36:22;;;;;;;0.30;0.20;;;;;;;11.42;100.00;98407.34;5022150;28;20490;-53
2022/01/04 05:38:49;;;;;;;0.30;0.20;;;;;;;11.43;100.00;98398.41;5023507;28;20506;-53
2022/01/04 05:41:16;;;;;;;0.30;0.20;;;;;;;11.41;100.00;98394.16;5024087;28;20488;-53
2022/01/04 05:43:42;;;;;;;0.30;0.20;;;;;;;11.39;100.00;98382.75;5024445;28;20467;-53
2022/01/04 05:46:09;;;;;;;0.30;0.20;;;;;;;11.27;100.00;98373.72;5024443;28;21047;-53
2022/01/04 05:48:36;;;;;;;0.30;0.30;;;;;;;11.35;100.00;98371.44;5028638;28;20942;-53
2022/01/04 05:51:02;;;;;;;0.30;0.20;;;;;;;11.34;100.00;98366.22;5026727;28;20494;-53
2022/01/04 05:53:31;;;;;;;0.30;0.20;;;;;;;11.35;100.00;98365.25;5026744;28;20440;-53
2022/01/04 05:55:58;;;;;;;0.30;0.20;;;;;;;11.35;100.00;98360.78;5028326;28;20444;-54
2022/01/04 05:58:24;;;;;;;0.30;0.20;;;;;;;11.34;100.00;98360.88;5025500;28;20423;-53
2022/01/04 06:00:51;;;;;;;0.30;0.20;;;;;;;11.43;100.00;98341.69;5026684;28;20504;-53
2022/01/04 06:03:18;;;;;;;0.30;0.20;;;;;;;11.40;100.00;98337.44;5025927;28;20455;-53
2022/01/04 06:05:44;;;;;;;0.30;0.20;;;;;;;11.37;100.00;98337.59;5025982;28;20494;-53
2022/01/04 06:08:12;;;;;;;0.30;0.20;;;;;;;11.33;100.00;98333.44;5024136;28;21313;-53
2022/01/04 06:10:40;;;;;;;0.30;0.20;;;;;;;11.33;100.00;98320.13;5025856;28;20557;-53
2022/01/04 06:15:38;;;;;;;0.30;0.20;;;;;;;11.35;100.00;98320.03;5025111;28;20495;-53
2022/01/04 06:18:04;;;;;;;0.30;0.20;;;;;;;11.35;100.00;98314.72;5028518;28;20415;-53
2022/01/04 06:20:31;;;;;;;0.30;0.20;;;;;;;11.31;100.00;98315.88;5023682;28;20460;-53
2022/01/04 06:22:58;;;;;;;0.30;0.20;;;;;;;11.53;100.00;98317.09;5024449;28;20980;-53
2022/01/04 06:25:25;;;;;;;0.30;0.20;;;;;;;11.41;100.00;98323.19;5030830;28;20479;-53
2022/01/04 06:27:53;;;;;;;0.30;0.20;;;;;;;11.42;100.00;98327.53;5029067;28;20510;-53
2022/01/04 06:30:22;;;;;;;0.30;0.20;;;;;;;11.35;100.00;98315.56;5031485;28;20465;-53
2022/01/04 06:32:50;;;;;;;0.30;0.20;;;;;;;11.35;100.00;98315.56;5024018;28;20440;-53
2022/01/04 06:35:17;;;;;;;0.30;0.20;;;;;;;11.37;100.00;98313.66;5033220;28;20470;-53
2022/01/04 06:37:47;;;;;;;0.30;0.20;;;;;;;11.41;100.00;98311.69;5028048;28;20454;-53
2022/01/04 06:40:14;;;;;;;0.30;0.20;;;;;;;10.78;100.00;98325.38;5024222;28;20581;-53
2022/01/04 06:42:40;;;;;;;0.30;0.20;;;;;;;10.55;100.00;98317.00;5023463;28;20488;-53
2022/01/04 06:45:07;;;;;;;0.30;0.20;;;;;;;10.33;100.00;98314.78;5026087;28;20441;-53
2022/01/04 06:47:34;;;;;;;0.30;0.20;;;;;;;10.32;100.00;98307.75;5025645;28;20490;-54
2022/01/04 06:50:01;;;;;;;0.30;0.20;;;;;;;10.47;100.00;98305.13;5023738;28;20460;-54
2022/01/04 06:52:28;;;;;;;0.30;0.20;;;;;;;10.59;100.00;98304.41;5023617;28;20455;-53
2022/01/04 06:54:55;;;;;;;0.30;0.20;;;;;;;10.59;100.00;98302.59;5027742;28;20491;-53
2022/01/04 06:57:22;;;;;;;0.30;0.20;;;;;;;10.85;100.00;98293.03;5025189;28;21897;-53
2022/01/04 06:59:49;;;;;;;0.30;0.20;;;;;;;10.47;100.00;98298.00;5023286;28;20478;-54
2022/01/04 07:02:15;;;;;;;0.30;0.20;;;;;;;10.56;100.00;98305.44;5023353;28;20494;-54
2022/01/04 07:04:42;;;;;;;0.30;0.20;;;;;;;10.33;100.00;98300.66;5024744;28;20472;-53
2022/01/04 07:07:09;;;;;;;0.30;0.20;;;;;;;10.32;100.00;98298.94;5024140;28;20483;-54
2022/01/04 07:09:36;;;;;;;0.30;0.20;;;;;;;10.31;100.00;98290.13;5024833;28;20452;-53
2022/01/04 07:12:03;;;;;;;0.30;0.20;;;;;;;10.31;100.00;98283.94;5032193;28;20448;-54
2022/01/04 07:14:29;;;;;;;0.30;0.20;;;;;;;10.15;100.00;98301.72;5025147;28;20440;-54
2022/01/04 07:16:56;;;;;;;0.30;0.20;;;;;;;10.04;100.00;98297.88;5027284;28;20489;-52
2022/01/04 07:19:23;;;;;;;0.30;0.20;;;;;;;10.20;100.00;98302.28;5024820;28;20444;-52
2022/01/04 07:21:49;;;;;;;0.30;0.20;;;;;;;9.98;100.00;98310.63;5024565;28;20455;-52
2022/01/04 07:24:16;;;;;;;0.30;0.20;;;;;;;9.91;100.00;98290.72;5024984;28;20440;-52
2022/01/04 07:26:43;;;;;;;0.30;0.20;;;;;;;9.77;100.00;98288.88;5025491;28;20510;-52
2022/01/04 07:29:09;;;;;;;0.30;0.20;;;;;;;9.70;100.00;98291.00;5023405;28;20509;-52
2022/01/04 07:31:36;;;;;;;0.30;0.20;;;;;;;9.55;100.00;98286.56;5023257;28;20517;-53
2022/01/04 07:34:03;;;;;;;0.30;0.20;;;;;;;9.54;100.00;98290.16;5024780;28;20894;-54
2022/01/04 07:36:31;;;;;;;0.30;0.20;;;;;;;9.92;100.00;98309.19;5024509;28;20436;-53
2022/01/04 07:38:58;;;;;;;0.30;0.20;;;;;;;9.70;100.00;98295.44;5022427;28;20443;-53
2022/01/04 07:41:25;;;;;;;0.30;0.20;;;;;;;9.55;100.00;98302.47;5023369;28;20494;-53
2022/01/04 07:43:51;;;;;;;0.30;0.20;;;;;;;9.55;100.00;98299.81;5029126;28;21003;-53
2022/01/04 07:46:18;;;;;;;0.30;0.20;;;;;;;9.44;100.00;98297.78;5024364;28;20536;-53
2022/01/04 07:48:47;;;;;;;0.30;0.20;;;;;;;9.26;100.00;98290.00;5025108;28;20477;-53
2022/01/04 07:51:13;;;;;;;0.30;0.20;;;;;;;9.28;100.00;98299.56;5024079;28;20471;-53
2022/01/04 07:53:40;;;;;;;0.30;0.20;;;;;;;9.33;100.00;98302.00;5026927;28;20447;-53
2022/01/04 07:56:06;;;;;;;0.30;0.20;;;;;;;9.34;100.00;98293.09;5020254;28;20485;-53
2022/01/04 07:58:33;;;;;;;0.30;0.20;;;;;;;9.41;100.00;98291.78;5033252;28;20458;-53
2022/01/04 08:01:00;;;;;;;0.30;0.20;;;;;;;9.34;100.00;98282.50;5032968;28;20495;-53
2022/01/04 08:03:27;;;;;;;0.30;0.20;;;;;;;9.65;100.00;98282.47;5033241;28;20457;-53
2022/01/04 08:05:55;;;;;;;0.30;0.20;;;;;;;9.66;100.00;98288.63;5033144;28;20451;-53
2022/01/04 08:08:22;;;;;;;0.30;0.20;;;;;;;9.85;100.00;98288.41;5033276;28;20447;-53
2022/01/04 08:10:50;;;;;;;0.30;0.20;;;;;;;9.62;100.00;98287.09;5033128;28;20728;-53
2022/01/04 08:13:16;;;;;;;0.30;0.20;;;;;;;9.61;100.00;98286.25;5033636;28;20513;-53
2022/01/04 08:15:43;;;;;;;0.30;0.20;;;;;;;9.56;100.00;98293.59;5020011;28;21006;-53
2022/01/04 08:18:10;;;;;;;0.30;0.20;;;;;;;9.52;100.00;98280.59;5023671;28;20448;-53
2022/01/04 08:20:36;;;;;;;0.30;0.20;;;;;;;9.60;100.00;98278.38;5030318;28;20475;-53
2022/01/04 08:23:03;;;;;;;0.30;0.20;;;;;;;9.61;100.00;98283.59;5033632;28;20526;-52
2022/01/04 08:25:30;;;;;;;0.30;0.20;;;;;;;9.64;100.00;98283.41;5029855;28;20453;-53
2022/01/04 08:27:58;;;;;;;0.30;0.20;;;;;;;9.44;100.00;98278.34;5023616;28;20992;-52
2022/01/04 08:30:25;;;;;;;0.30;0.20;;;;;;;9.56;100.00;98280.31;5033151;28;20525;-53
2022/01/04 08:32:53;;;;;;;0.30;0.20;;;;;;;9.79;100.00;98282.53;5033180;28;20455;-53
2022/01/04 08:35:19;;;;;;;0.30;0.20;;;;;;;9.90;100.00;98275.75;5033435;28;20510;-53
2022/01/04 08:37:46;;;;;;;0.30;0.20;;;;;;;9.75;100.00;98275.69;5033662;28;20444;-53
2022/01/04 08:40:13;;;;;;;0.30;0.20;;;;;;;9.66;100.00;98264.75;5032842;28;20471;-53
2022/01/04 08:42:40;;;;;;;0.30;0.20;;;;;;;9.70;100.00;98272.44;5032834;28;20908;-53
2022/01/04 08:45:07;;;;;;;0.30;0.20;;;;;;;9.84;100.00;98273.44;5032874;28;20459;-53
2022/01/04 08:47:34;;;;;;;0.30;0.20;;;;;;;9.57;100.00;98276.72;5032862;28;20487;-54
2022/01/04 08:50:02;;;;;;;0.30;0.20;;;;;;;9.45;100.00;98272.09;5032905;28;20537;-54
2022/01/04 08:52:29;;;;;;;0.30;0.20;;;;;;;9.61;100.00;98272.13;5032960;28;20448;-54
2022/01/04 08:54:59;;;;;;;0.30;0.20;;;;;;;9.53;100.00;98277.84;5026987;28;20937;-54
2022/01/04 08:57:26;;;;;;;0.30;0.20;;;;;;;9.36;100.00;98272.66;5025453;28;20444;-54
2022/01/04 08:59:54;;;;;;;0.30;0.20;;;;;;;9.46;100.00;98263.25;5032437;28;20476;-54
2022/01/04 09:02:22;;;;;;;0.30;0.20;;;;;;;9.68;100.00;98274.31;5032692;28;20500;-54
2022/01/04 09:04:50;;;;;;;0.30;0.20;;;;;;;9.87;100.00;98275.91;5019701;28;20448;-53
2022/01/04 09:07:17;;;;;;;0.30;0.20;;;;;;;10.03;100.00;98266.97;5025717;28;20901;-54
2022/01/04 09:09:46;;;;;;;0.30;0.20;;;;;;;9.94;100.00;98264.84;5032672;28;20447;-54
2022/01/04 09:12:35;;;;;;;0.30;0.20;;;;;;;9.97;100.00;98267.31;5025913;28;20535;-54
2022/01/04 09:15:30;;;;;;;0.30;0.20;;;;;;;9.66;100.00;98265.59;5032608;28;20447;-54
2022/01/04 09:21:23;;;;;;;0.30;0.20;;;;;;;10.09;100.00;98266.59;5042612;28;20491;-54
2022/01/04 09:23:51;;;;;;;0.30;0.20;;;;;;;9.62;100.00;98261.41;5053811;28;20452;-54
2022/01/04 09:26:18;;;;;;;0.30;0.20;;;;;;;9.71;100.00;98258.22;5031049;28;20499;-54
2022/01/04 09:28:45;;;;;;;0.30;0.20;;;;;;;9.54;100.00;98271.59;5032403;28;20512;-54
2022/01/04 09:31:13;;;;;;;0.30;0.20;;;;;;;9.71;100.00;98275.94;5036194;28;20468;-54
2022/01/04 09:33:40;;;;;;;0.30;0.20;;;;;;;9.46;100.00;98281.81;5035940;28;20940;-54
2022/01/04 09:36:28;;;;;;;0.30;0.20;;;;;;;9.66;100.00;98285.97;5035748;28;20897;-54
2022/01/04 09:38:55;;;;;;;0.30;0.20;;;;;;;9.28;100.00;98281.03;5036274;28;20506;-54
2022/01/04 09:41:22;;;;;;;0.30;0.20;;;;;;;9.30;100.00;98272.97;5029134;28;20486;-54
2022/01/04 09:43:49;;;;;;;0.30;0.20;;;;;;;9.32;100.00;98269.31;5028716;28;20430;-54
2022/01/04 09:46:16;;;;;;;0.30;0.20;;;;;;;9.37;100.00;98285.81;5025200;28;20451;-54
2022/01/04 09:48:43;;;;;;;0.30;0.20;;;;;;;9.19;100.00;98293.00;5025275;28;20486;-54
2022/01/04 09:51:12;;;;;;;0.30;0.20;;;;;;;9.27;100.00;98281.97;5024686;28;20534;-54
2022/01/04 09:53:39;;;;;;;0.30;0.20;;;;;;;9.42;100.00;98307.63;5028490;28;20940;-54
2022/01/04 09:56:07;;;;;;;0.30;0.20;;;;;;;9.17;100.00;98305.47;5024302;28;21040;-55
2022/01/04 09:58:34;;;;;;;0.30;0.20;;;;;;;9.46;100.00;98303.88;5030366;28;20443;-57
2022/01/04 10:01:01;;;;;;;0.30;0.20;;;;;;;9.41;100.00;98308.56;5025670;28;20472;-54
2022/01/04 10:03:31;;;;;;;0.30;0.20;;;;;;;9.66;100.00;98310.69;5026761;28;20448;-55
2022/01/04 10:06:14;;;;;;;0.30;0.20;;;;;;;9.50;100.00;98318.66;5026205;28;20506;-54
2022/01/04 10:09:04;;;;;;;0.30;0.20;;;;;;;9.33;100.00;98320.56;5024055;28;20491;-53
2022/01/04 10:11:33;;;;;;;0.30;0.20;;;;;;;9.66;100.00;98325.75;5027254;28;21057;-55
2022/01/04 10:14:01;;;;;;;0.30;0.20;;;;;;;9.76;100.00;98334.91;5023487;28;20501;-55
2022/01/04 10:16:28;;;;;;;0.30;0.20;;;;;;;9.75;100.00;98344.66;5025792;28;20533;-55
2022/01/04 10:18:55;;;;;;;0.30;0.20;;;;;;;9.45;100.00;98349.88;5023298;28;20448;-55
2022/01/04 10:21:22;;;;;;;0.30;0.20;;;;;;;9.78;100.00;98333.03;5022410;28;20482;-55
2022/01/04 10:23:53;;;;;;;0.30;0.20;;;;;;;9.74;100.00;98344.75;5024865;28;20448;-55
2022/01/04 10:26:31;;;;;;;0.30;0.20;;;;;;;9.14;100.00;98339.25;5026194;28;20529;-55
2022/01/04 10:28:58;;;;;;;0.30;0.20;;;;;;;9.59;100.00;98337.63;5023077;28;20456;-55
2022/01/04 10:31:25;;;;;;;0.30;0.20;;;;;;;9.79;100.00;98340.88;5026567;28;20522;-54
2022/01/04 10:33:55;;;;;;;0.30;0.20;;;;;;;9.61;100.00;98352.56;5022450;28;20910;-54
2022/01/04 10:36:25;;;;;;;0.30;0.20;;;;;;;9.44;100.00;98350.81;5027105;28;20968;-54
2022/01/04 10:38:52;;;;;;;0.30;0.20;;;;;;;9.48;100.00;98355.03;5025285;28;20452;-54
2022/01/04 10:41:25;;;;;;;0.30;0.20;;;;;;;9.65;100.00;98351.44;5024635;28;20519;-54
2022/01/04 10:44:06;;;;;;;0.30;0.20;;;;;;;9.65;100.00;98356.72;5023561;28;20451;-54
2022/01/04 10:46:39;;;;;;;0.30;0.20;;;;;;;9.54;100.00;98363.56;5028597;28;20953;-54
2022/01/04 10:49:17;;;;;;;0.30;0.20;;;;;;;9.17;100.00;98349.66;5028513;28;21198;-54
2022/01/04 10:51:47;;;;;;;0.30;0.20;;;;;;;9.41;100.00;98347.47;5028002;28;20994;-54
2022/01/04 10:54:19;;;;;;;0.30;0.20;;;;;;;9.42;100.00;98344.75;5028741;28;20451;-55
2022/01/04 10:56:46;;;;;;;0.30;0.20;;;;;;;9.66;100.00;98346.97;5024498;28;20473;-55
2022/01/04 10:59:13;;;;;;;0.30;0.20;;;;;;;9.59;100.00;98362.38;5027497;28;20451;-55
2022/01/04 11:01:50;;;;;;;0.30;0.20;;;;;;;9.54;100.00;98358.28;5021366;28;20960;-56
2022/01/04 11:04:19;;;;;;;0.30;0.20;;;;;;;9.30;100.00;98360.47;5017824;28;20455;-55
2022/01/04 11:06:49;;;;;;;0.30;0.20;;;;;;;9.20;100.00;98368.09;5023220;28;20467;-55
2022/01/04 11:09:18;;;;;;;0.30;0.20;;;;;;;9.13;100.00;98366.69;5020954;28;20955;-55
2022/01/04 11:11:45;;;;;;;0.30;0.20;;;;;;;9.29;100.00;98372.00;5023924;28;20503;-55
2022/01/04 11:14:13;;;;;;;0.30;0.20;;;;;;;9.36;100.00;98376.91;5020044;28;21346;-55
2022/01/04 11:16:40;;;;;;;0.30;0.20;;;;;;;9.41;100.00;98384.59;5024087;28;20463;-55
2022/01/04 11:19:07;;;;;;;0.30;0.20;;;;;;;9.37;100.00;98389.22;5020327;28;20904;-55
2022/01/04 11:21:42;;;;;;;0.30;0.20;;;;;;;9.09;100.00;98379.25;5024123;28;21214;-55
2022/01/04 11:24:16;;;;;;;0.30;0.20;;;;;;;9.09;100.00;98387.19;5026206;28;20803;-55
2022/01/04 11:26:46;;;;;;;0.30;0.20;;;;;;;9.25;100.00;98386.38;5023920;28;20484;-55
2022/01/04 11:29:14;;;;;;;0.30;0.20;;;;;;;8.79;100.00;98392.31;5021290;28;20894;-55
2022/01/04 11:31:53;;;;;;;0.30;0.20;;;;;;;8.80;100.00;98398.47;5027464;28;20995;-55
2022/01/04 11:34:57;;;;;;;0.30;0.20;;;;;;;8.97;100.00;98400.25;5027511;28;20451;-55
2022/01/04 11:37:25;;;;;;;0.30;0.20;;;;;;;9.00;100.00;98402.72;5022934;28;20455;-55
2022/01/04 11:39:52;;;;;;;0.30;0.20;;;;;;;9.06;100.00;98397.13;5023028;28;20468;-55
2022/01/04 11:42:31;;;;;;;0.30;0.20;;;;;;;9.35;100.00;98395.56;5025070;28;20475;-55
2022/01/04 11:44:59;;;;;;;0.30;0.20;;;;;;;9.22;100.00;98400.66;5019731;28;20458;-55